sensor_id;sensor_type;location;lat;lon;timestamp;temperature;humidity
16515;DHT22;8370;52.556;7.970;2023-06-10T00:00:50;18.20;99.90
16515;DHT22;8370;52.556;7.970;2023-06-10T00:03:16;18.10;99.90
16515;DHT22;8370;52.556;7.970;2023-06-10T00:05:41;18.10;99.90
16515;DHT22;8370;52.556;7.970;2023-06-10T00:08:07;18.00;99.90
16515;DHT22;8370;52.556;7.970;2023-06-10T00:10:33;18.00;99.90
16515;DHT22;8370;52.556;7.970;2023-06-10T00:13:00;18.00;99.90
16515;DHT22;8370;52.556;7.970;2023-06-10T00:15:26;17.90;99.90
16515;DHT22;8370;52.556;7.970;2023-06-10T00:17:51;17.90;99.90
16515;DHT22;8370;52.556;7.970;2023-06-10T00:20:18;17.80;99.90
16515;DHT22;8370;52.556;7.970;2023-06-10T00:22:43;17.80;99.90
16515;DHT22;8370;52.556;7.970;2023-06-10T00:25:10;17.80;99.90
16515;DHT22;8370;52.556;7.970;2023-06-10T00:27:36;17.70;99.90
16515;DHT22;8370;52.556;7.970;2023-06-10T00:30:05;17.60;99.90
16515;DHT22;8370;52.556;7.970;2023-06-10T00:32:35;17.60;99.90
16515;DHT22;8370;52.556;7.970;2023-06-10T00:35:01;17.50;99.90
16515;DHT22;8370;52.556;7.970;2023-06-10T00:37:26;17.50;99.90
16515;DHT22;8370;52.556;7.970;2023-06-10T00:39:52;17.50;99.90
16515;DHT22;8370;52.556;7.970;2023-06-10T00:42:17;17.40;99.90
16515;DHT22;8370;52.556;7.970;2023-06-10T00:44:43;17.30;99.90
16515;DHT22;8370;52.556;7.970;2023-06-10T00:47:08;17.30;99.90
16515;DHT22;8370;52.556;7.970;2023-06-10T00:49:34;17.30;99.90
16515;DHT22;8370;52.556;7.970;2023-06-10T00:52:00;17.30;99.90
16515;DHT22;8370;52.556;7.970;2023-06-10T00:54:26;17.20;99.90
16515;DHT22;8370;52.556;7.970;2023-06-10T00:56:52;17.20;99.90
16515;DHT22;8370;52.556;7.970;2023-06-10T00:59:18;17.20;99.90
16515;DHT22;8370;52.556;7.970;2023-06-10T01:01:43;17.20;99.90
16515;DHT22;8370;52.556;7.970;2023-06-10T01:04:12;17.20;99.90
16515;DHT22;8370;52.556;7.970;2023-06-10T01:09:12;17.10;99.90
16515;DHT22;8370;52.556;7.970;2023-06-10T01:11:42;17.00;99.90
16515;DHT22;8370;52.556;7.970;2023-06-10T01:14:09;17.00;99.90
16515;DHT22;8370;52.556;7.970;2023-06-10T01:16:34;16.90;99.90
16515;DHT22;8370;52.556;7.970;2023-06-10T01:19:02;16.90;99.90
16515;DHT22;8370;52.556;7.970;2023-06-10T01:21:27;16.80;99.90
16515;DHT22;8370;52.556;7.970;2023-06-10T01:23:53;16.80;99.90
16515;DHT22;8370;52.556;7.970;2023-06-10T01:26:22;16.80;99.90
16515;DHT22;8370;52.556;7.970;2023-06-10T01:31:18;16.70;99.90
16515;DHT22;8370;52.556;7.970;2023-06-10T01:33:47;16.70;99.90
16515;DHT22;8370;52.556;7.970;2023-06-10T01:36:13;16.60;99.90
16515;DHT22;8370;52.556;7.970;2023-06-10T01:38:40;16.60;99.90
16515;DHT22;8370;52.556;7.970;2023-06-10T01:41:07;16.60;99.90
16515;DHT22;8370;52.556;7.970;2023-06-10T01:43:33;16.50;99.90
16515;DHT22;8370;52.556;7.970;2023-06-10T01:45:59;16.50;99.90
16515;DHT22;8370;52.556;7.970;2023-06-10T01:48:25;16.40;99.90
16515;DHT22;8370;52.556;7.970;2023-06-10T01:50:50;16.40;99.90
16515;DHT22;8370;52.556;7.970;2023-06-10T01:53:16;16.30;99.90
16515;DHT22;8370;52.556;7.970;2023-06-10T01:55:41;16.30;99.90
16515;DHT22;8370;52.556;7.970;2023-06-10T01:58:06;16.20;99.90
16515;DHT22;8370;52.556;7.970;2023-06-10T02:00:32;16.20;99.90
16515;DHT22;8370;52.556;7.970;2023-06-10T02:02:57;16.20;99.90
16515;DHT22;8370;52.556;7.970;2023-06-10T02:05:23;16.10;99.90
16515;DHT22;8370;52.556;7.970;2023-06-10T02:07:48;16.10;99.90
16515;DHT22;8370;52.556;7.970;2023-06-10T02:10:13;16.00;99.90
16515;DHT22;8370;52.556;7.970;2023-06-10T02:12:39;16.10;99.90
16515;DHT22;8370;52.556;7.970;2023-06-10T02:15:04;16.00;99.90
16515;DHT22;8370;52.556;7.970;2023-06-10T02:17:30;16.00;99.90
16515;DHT22;8370;52.556;7.970;2023-06-10T02:19:55;16.00;99.90
16515;DHT22;8370;52.556;7.970;2023-06-10T02:22:22;16.00;99.90
16515;DHT22;8370;52.556;7.970;2023-06-10T02:24:48;16.00;99.90
16515;DHT22;8370;52.556;7.970;2023-06-10T02:27:14;15.90;99.90
16515;DHT22;8370;52.556;7.970;2023-06-10T02:29:40;15.90;99.90
16515;DHT22;8370;52.556;7.970;2023-06-10T02:32:06;15.90;99.90
16515;DHT22;8370;52.556;7.970;2023-06-10T02:34:32;15.90;99.90
16515;DHT22;8370;52.556;7.970;2023-06-10T02:36:57;15.80;99.90
16515;DHT22;8370;52.556;7.970;2023-06-10T02:39:22;15.80;99.90
16515;DHT22;8370;52.556;7.970;2023-06-10T02:41:48;15.70;99.90
16515;DHT22;8370;52.556;7.970;2023-06-10T02:44:13;15.60;99.90
16515;DHT22;8370;52.556;7.970;2023-06-10T02:46:39;15.60;99.90
16515;DHT22;8370;52.556;7.970;2023-06-10T02:49:04;15.50;99.90
16515;DHT22;8370;52.556;7.970;2023-06-10T02:51:30;15.50;99.90
16515;DHT22;8370;52.556;7.970;2023-06-10T02:53:55;15.50;99.90
16515;DHT22;8370;52.556;7.970;2023-06-10T02:56:20;15.40;99.90
16515;DHT22;8370;52.556;7.970;2023-06-10T02:58:47;15.40;99.90
16515;DHT22;8370;52.556;7.970;2023-06-10T03:01:13;15.40;99.90
16515;DHT22;8370;52.556;7.970;2023-06-10T03:03:38;15.30;99.90
16515;DHT22;8370;52.556;7.970;2023-06-10T03:06:09;15.40;99.90
16515;DHT22;8370;52.556;7.970;2023-06-10T03:08:35;15.30;99.90
16515;DHT22;8370;52.556;7.970;2023-06-10T03:11:01;15.30;99.90
16515;DHT22;8370;52.556;7.970;2023-06-10T03:13:26;15.30;99.90
16515;DHT22;8370;52.556;7.970;2023-06-10T03:15:52;15.30;99.90
16515;DHT22;8370;52.556;7.970;2023-06-10T03:18:17;15.30;99.90
16515;DHT22;8370;52.556;7.970;2023-06-10T03:20:43;15.30;99.90
16515;DHT22;8370;52.556;7.970;2023-06-10T03:23:09;15.30;99.90
16515;DHT22;8370;52.556;7.970;2023-06-10T03:25:35;15.30;99.90
16515;DHT22;8370;52.556;7.970;2023-06-10T03:28:00;15.30;99.90
16515;DHT22;8370;52.556;7.970;2023-06-10T03:30:27;15.20;99.90
16515;DHT22;8370;52.556;7.970;2023-06-10T03:32:52;15.20;99.90
16515;DHT22;8370;52.556;7.970;2023-06-10T03:35:18;15.20;99.90
16515;DHT22;8370;52.556;7.970;2023-06-10T03:37:43;15.20;99.90
16515;DHT22;8370;52.556;7.970;2023-06-10T03:40:09;15.10;99.90
16515;DHT22;8370;52.556;7.970;2023-06-10T03:42:35;15.20;99.90
16515;DHT22;8370;52.556;7.970;2023-06-10T03:45:00;15.10;99.90
16515;DHT22;8370;52.556;7.970;2023-06-10T03:47:26;15.10;99.90
16515;DHT22;8370;52.556;7.970;2023-06-10T03:49:51;15.10;99.90
16515;DHT22;8370;52.556;7.970;2023-06-10T03:52:18;15.10;99.90
16515;DHT22;8370;52.556;7.970;2023-06-10T03:54:43;15.10;99.90
16515;DHT22;8370;52.556;7.970;2023-06-10T03:57:09;15.10;99.90
16515;DHT22;8370;52.556;7.970;2023-06-10T03:59:34;15.10;99.90
16515;DHT22;8370;52.556;7.970;2023-06-10T04:02:00;15.20;99.90
16515;DHT22;8370;52.556;7.970;2023-06-10T04:04:26;15.20;99.90
16515;DHT22;8370;52.556;7.970;2023-06-10T04:06:52;15.20;99.90
16515;DHT22;8370;52.556;7.970;2023-06-10T04:09:18;15.20;99.90
16515;DHT22;8370;52.556;7.970;2023-06-10T04:11:43;15.20;99.90
16515;DHT22;8370;52.556;7.970;2023-06-10T04:14:08;15.20;99.90
16515;DHT22;8370;52.556;7.970;2023-06-10T04:16:34;15.20;99.90
16515;DHT22;8370;52.556;7.970;2023-06-10T04:19:00;15.30;99.90
16515;DHT22;8370;52.556;7.970;2023-06-10T04:21:26;15.30;99.90
16515;DHT22;8370;52.556;7.970;2023-06-10T04:23:52;15.30;99.90
16515;DHT22;8370;52.556;7.970;2023-06-10T04:26:17;15.30;99.90
16515;DHT22;8370;52.556;7.970;2023-06-10T04:28:43;15.40;99.90
16515;DHT22;8370;52.556;7.970;2023-06-10T04:31:08;15.30;99.90
16515;DHT22;8370;52.556;7.970;2023-06-10T04:33:34;15.40;99.90
16515;DHT22;8370;52.556;7.970;2023-06-10T04:36:00;15.40;99.90
16515;DHT22;8370;52.556;7.970;2023-06-10T04:38:25;15.40;99.90
16515;DHT22;8370;52.556;7.970;2023-06-10T04:40:51;15.50;99.90
16515;DHT22;8370;52.556;7.970;2023-06-10T04:43:17;15.50;99.90
16515;DHT22;8370;52.556;7.970;2023-06-10T04:45:42;15.50;99.90
16515;DHT22;8370;52.556;7.970;2023-06-10T04:48:10;15.50;99.90
16515;DHT22;8370;52.556;7.970;2023-06-10T04:50:36;15.50;99.90
16515;DHT22;8370;52.556;7.970;2023-06-10T04:53:01;15.60;99.90
16515;DHT22;8370;52.556;7.970;2023-06-10T04:55:27;15.60;99.90
16515;DHT22;8370;52.556;7.970;2023-06-10T04:57:52;15.60;99.90
16515;DHT22;8370;52.556;7.970;2023-06-10T05:00:18;15.70;99.90
16515;DHT22;8370;52.556;7.970;2023-06-10T05:02:43;15.70;99.90
16515;DHT22;8370;52.556;7.970;2023-06-10T05:05:10;15.70;99.90
16515;DHT22;8370;52.556;7.970;2023-06-10T05:07:35;15.80;99.90
16515;DHT22;8370;52.556;7.970;2023-06-10T05:10:00;15.80;99.90
16515;DHT22;8370;52.556;7.970;2023-06-10T05:12:26;15.80;99.90
16515;DHT22;8370;52.556;7.970;2023-06-10T05:14:52;15.80;99.90
16515;DHT22;8370;52.556;7.970;2023-06-10T05:17:17;15.90;99.90
16515;DHT22;8370;52.556;7.970;2023-06-10T05:19:43;15.90;99.90
16515;DHT22;8370;52.556;7.970;2023-06-10T05:22:08;15.90;99.90
16515;DHT22;8370;52.556;7.970;2023-06-10T05:24:34;15.90;99.90
16515;DHT22;8370;52.556;7.970;2023-06-10T05:26:59;16.00;99.90
16515;DHT22;8370;52.556;7.970;2023-06-10T05:29:25;16.00;99.90
16515;DHT22;8370;52.556;7.970;2023-06-10T05:31:51;16.00;99.90
16515;DHT22;8370;52.556;7.970;2023-06-10T05:34:16;16.10;99.90
16515;DHT22;8370;52.556;7.970;2023-06-10T05:36:41;16.10;99.90
16515;DHT22;8370;52.556;7.970;2023-06-10T05:39:08;16.10;99.90
16515;DHT22;8370;52.556;7.970;2023-06-10T05:41:34;16.10;99.90
16515;DHT22;8370;52.556;7.970;2023-06-10T05:43:59;16.20;99.90
16515;DHT22;8370;52.556;7.970;2023-06-10T05:46:25;16.30;99.90
16515;DHT22;8370;52.556;7.970;2023-06-10T05:48:50;16.30;99.90
16515;DHT22;8370;52.556;7.970;2023-06-10T05:51:16;16.30;99.90
16515;DHT22;8370;52.556;7.970;2023-06-10T05:53:41;16.40;99.90
16515;DHT22;8370;52.556;7.970;2023-06-10T05:56:06;16.40;99.90
16515;DHT22;8370;52.556;7.970;2023-06-10T05:58:32;16.50;99.90
16515;DHT22;8370;52.556;7.970;2023-06-10T06:00:57;16.60;99.90
16515;DHT22;8370;52.556;7.970;2023-06-10T06:03:23;16.60;99.90
16515;DHT22;8370;52.556;7.970;2023-06-10T06:05:48;16.70;99.90
16515;DHT22;8370;52.556;7.970;2023-06-10T06:08:14;16.80;99.90
16515;DHT22;8370;52.556;7.970;2023-06-10T06:10:42;16.80;99.90
16515;DHT22;8370;52.556;7.970;2023-06-10T06:13:08;16.80;99.90
16515;DHT22;8370;52.556;7.970;2023-06-10T06:15:33;16.90;99.90
16515;DHT22;8370;52.556;7.970;2023-06-10T06:17:58;16.90;99.90
16515;DHT22;8370;52.556;7.970;2023-06-10T06:20:24;17.00;99.90
16515;DHT22;8370;52.556;7.970;2023-06-10T06:22:49;17.10;99.90
16515;DHT22;8370;52.556;7.970;2023-06-10T06:25:15;17.20;99.90
16515;DHT22;8370;52.556;7.970;2023-06-10T06:27:40;17.20;99.90
16515;DHT22;8370;52.556;7.970;2023-06-10T06:30:06;17.30;99.90
16515;DHT22;8370;52.556;7.970;2023-06-10T06:32:31;17.40;99.90
16515;DHT22;8370;52.556;7.970;2023-06-10T06:34:57;17.50;99.90
16515;DHT22;8370;52.556;7.970;2023-06-10T06:37:23;17.50;99.90
16515;DHT22;8370;52.556;7.970;2023-06-10T06:39:52;17.60;99.90
16515;DHT22;8370;52.556;7.970;2023-06-10T06:42:18;17.70;99.90
16515;DHT22;8370;52.556;7.970;2023-06-10T06:44:44;17.80;99.90
16515;DHT22;8370;52.556;7.970;2023-06-10T06:47:09;17.80;99.90
16515;DHT22;8370;52.556;7.970;2023-06-10T06:49:35;17.90;99.90
16515;DHT22;8370;52.556;7.970;2023-06-10T06:52:01;18.00;99.90
16515;DHT22;8370;52.556;7.970;2023-06-10T06:54:26;18.10;99.90
16515;DHT22;8370;52.556;7.970;2023-06-10T06:56:51;18.10;99.90
16515;DHT22;8370;52.556;7.970;2023-06-10T06:59:17;18.20;99.90
16515;DHT22;8370;52.556;7.970;2023-06-10T07:01:44;18.30;99.90
16515;DHT22;8370;52.556;7.970;2023-06-10T07:04:10;18.30;99.90
16515;DHT22;8370;52.556;7.970;2023-06-10T07:06:35;18.40;99.90
16515;DHT22;8370;52.556;7.970;2023-06-10T07:09:01;18.50;99.90
16515;DHT22;8370;52.556;7.970;2023-06-10T07:11:26;18.50;99.90
16515;DHT22;8370;52.556;7.970;2023-06-10T07:13:52;18.70;99.90
16515;DHT22;8370;52.556;7.970;2023-06-10T07:16:17;18.70;99.90
16515;DHT22;8370;52.556;7.970;2023-06-10T07:18:45;18.80;99.90
16515;DHT22;8370;52.556;7.970;2023-06-10T07:21:11;18.90;99.90
16515;DHT22;8370;52.556;7.970;2023-06-10T07:23:36;19.00;99.90
16515;DHT22;8370;52.556;7.970;2023-06-10T07:26:02;19.10;99.90
16515;DHT22;8370;52.556;7.970;2023-06-10T07:28:27;19.10;99.90
16515;DHT22;8370;52.556;7.970;2023-06-10T07:30:53;19.20;99.90
16515;DHT22;8370;52.556;7.970;2023-06-10T07:33:18;19.30;99.90
16515;DHT22;8370;52.556;7.970;2023-06-10T07:35:44;19.40;99.90
16515;DHT22;8370;52.556;7.970;2023-06-10T07:38:09;19.50;99.90
16515;DHT22;8370;52.556;7.970;2023-06-10T07:40:35;19.60;99.90
16515;DHT22;8370;52.556;7.970;2023-06-10T07:43:00;19.70;99.90
16515;DHT22;8370;52.556;7.970;2023-06-10T07:45:26;19.80;99.90
16515;DHT22;8370;52.556;7.970;2023-06-10T07:47:51;19.90;99.90
16515;DHT22;8370;52.556;7.970;2023-06-10T07:50:17;20.00;99.90
16515;DHT22;8370;52.556;7.970;2023-06-10T07:52:42;20.10;99.90
16515;DHT22;8370;52.556;7.970;2023-06-10T07:55:07;20.20;99.90
16515;DHT22;8370;52.556;7.970;2023-06-10T07:57:33;20.30;99.90
16515;DHT22;8370;52.556;7.970;2023-06-10T08:00:02;20.40;99.90
16515;DHT22;8370;52.556;7.970;2023-06-10T08:02:29;20.50;99.90
16515;DHT22;8370;52.556;7.970;2023-06-10T08:04:55;20.60;99.90
16515;DHT22;8370;52.556;7.970;2023-06-10T08:07:20;20.70;99.90
16515;DHT22;8370;52.556;7.970;2023-06-10T08:09:46;20.70;99.90
16515;DHT22;8370;52.556;7.970;2023-06-10T08:12:11;20.80;99.90
16515;DHT22;8370;52.556;7.970;2023-06-10T08:14:36;20.90;99.90
16515;DHT22;8370;52.556;7.970;2023-06-10T08:17:02;21.00;99.90
16515;DHT22;8370;52.556;7.970;2023-06-10T08:19:30;21.10;99.90
16515;DHT22;8370;52.556;7.970;2023-06-10T08:21:56;21.10;99.90
16515;DHT22;8370;52.556;7.970;2023-06-10T08:24:21;21.20;99.90
16515;DHT22;8370;52.556;7.970;2023-06-10T08:26:46;21.30;99.90
16515;DHT22;8370;52.556;7.970;2023-06-10T08:29:12;21.30;99.90
16515;DHT22;8370;52.556;7.970;2023-06-10T08:31:40;21.40;99.90
16515;DHT22;8370;52.556;7.970;2023-06-10T08:34:06;21.50;99.90
16515;DHT22;8370;52.556;7.970;2023-06-10T08:36:31;21.60;99.90
16515;DHT22;8370;52.556;7.970;2023-06-10T08:38:56;21.70;99.90
16515;DHT22;8370;52.556;7.970;2023-06-10T08:41:22;21.80;99.90
16515;DHT22;8370;52.556;7.970;2023-06-10T08:43:59;21.90;99.90
16515;DHT22;8370;52.556;7.970;2023-06-10T08:46:26;22.00;99.90
16515;DHT22;8370;52.556;7.970;2023-06-10T08:48:52;22.10;99.90
16515;DHT22;8370;52.556;7.970;2023-06-10T08:51:20;22.20;99.90
16515;DHT22;8370;52.556;7.970;2023-06-10T08:53:48;22.30;99.90
16515;DHT22;8370;52.556;7.970;2023-06-10T08:56:15;22.40;99.90
16515;DHT22;8370;52.556;7.970;2023-06-10T08:58:41;22.50;99.90
16515;DHT22;8370;52.556;7.970;2023-06-10T09:01:09;22.60;99.90
16515;DHT22;8370;52.556;7.970;2023-06-10T09:03:37;22.70;99.90
16515;DHT22;8370;52.556;7.970;2023-06-10T09:06:04;22.70;99.90
16515;DHT22;8370;52.556;7.970;2023-06-10T09:08:30;22.70;99.90
16515;DHT22;8370;52.556;7.970;2023-06-10T09:10:55;22.70;99.90
16515;DHT22;8370;52.556;7.970;2023-06-10T09:13:21;22.80;99.90
16515;DHT22;8370;52.556;7.970;2023-06-10T09:15:48;22.90;99.90
16515;DHT22;8370;52.556;7.970;2023-06-10T09:18:14;22.90;99.90
16515;DHT22;8370;52.556;7.970;2023-06-10T09:20:41;23.00;99.90
16515;DHT22;8370;52.556;7.970;2023-06-10T09:23:07;23.10;99.90
16515;DHT22;8370;52.556;7.970;2023-06-10T09:25:37;23.10;99.90
16515;DHT22;8370;52.556;7.970;2023-06-10T09:28:02;23.20;99.90
16515;DHT22;8370;52.556;7.970;2023-06-10T09:30:32;23.30;99.90
16515;DHT22;8370;52.556;7.970;2023-06-10T09:32:59;23.40;99.90
16515;DHT22;8370;52.556;7.970;2023-06-10T09:35:25;23.40;99.90
16515;DHT22;8370;52.556;7.970;2023-06-10T09:37:54;23.60;99.90
16515;DHT22;8370;52.556;7.970;2023-06-10T09:40:19;23.70;99.90
16515;DHT22;8370;52.556;7.970;2023-06-10T09:42:45;23.80;99.90
16515;DHT22;8370;52.556;7.970;2023-06-10T09:45:10;23.80;99.90
16515;DHT22;8370;52.556;7.970;2023-06-10T09:47:35;23.90;99.90
16515;DHT22;8370;52.556;7.970;2023-06-10T09:50:01;24.00;99.90
16515;DHT22;8370;52.556;7.970;2023-06-10T09:52:27;24.10;99.90
16515;DHT22;8370;52.556;7.970;2023-06-10T09:54:53;24.10;99.90
16515;DHT22;8370;52.556;7.970;2023-06-10T09:57:19;24.10;99.90
16515;DHT22;8370;52.556;7.970;2023-06-10T09:59:45;24.20;99.90
16515;DHT22;8370;52.556;7.970;2023-06-10T10:02:14;24.30;99.90
16515;DHT22;8370;52.556;7.970;2023-06-10T10:04:40;24.40;99.90
16515;DHT22;8370;52.556;7.970;2023-06-10T10:07:05;24.40;99.90
16515;DHT22;8370;52.556;7.970;2023-06-10T10:09:32;24.40;99.90
16515;DHT22;8370;52.556;7.970;2023-06-10T10:11:58;24.50;99.90
16515;DHT22;8370;52.556;7.970;2023-06-10T10:14:26;24.60;99.90
16515;DHT22;8370;52.556;7.970;2023-06-10T10:16:54;24.60;99.90
16515;DHT22;8370;52.556;7.970;2023-06-10T10:19:28;24.70;99.90
16515;DHT22;8370;52.556;7.970;2023-06-10T10:21:56;24.80;99.90
16515;DHT22;8370;52.556;7.970;2023-06-10T10:24:30;24.90;99.90
16515;DHT22;8370;52.556;7.970;2023-06-10T10:26:57;25.00;99.90
16515;DHT22;8370;52.556;7.970;2023-06-10T10:29:24;25.10;99.90
16515;DHT22;8370;52.556;7.970;2023-06-10T10:31:50;25.10;99.90
16515;DHT22;8370;52.556;7.970;2023-06-10T10:34:23;25.10;99.90
16515;DHT22;8370;52.556;7.970;2023-06-10T10:36:51;25.10;99.90
16515;DHT22;8370;52.556;7.970;2023-06-10T10:39:16;25.20;99.90
16515;DHT22;8370;52.556;7.970;2023-06-10T10:41:42;25.20;99.90
16515;DHT22;8370;52.556;7.970;2023-06-10T10:44:08;25.40;99.90
16515;DHT22;8370;52.556;7.970;2023-06-10T10:46:43;25.40;99.90
16515;DHT22;8370;52.556;7.970;2023-06-10T10:49:10;25.50;99.90
16515;DHT22;8370;52.556;7.970;2023-06-10T10:51:35;25.60;99.90
16515;DHT22;8370;52.556;7.970;2023-06-10T10:54:11;25.70;99.90
16515;DHT22;8370;52.556;7.970;2023-06-10T10:56:38;25.80;99.90
16515;DHT22;8370;52.556;7.970;2023-06-10T10:59:03;25.80;99.90
16515;DHT22;8370;52.556;7.970;2023-06-10T11:01:39;25.90;99.90
16515;DHT22;8370;52.556;7.970;2023-06-10T11:04:06;26.00;99.90
16515;DHT22;8370;52.556;7.970;2023-06-10T11:06:32;26.10;99.90
16515;DHT22;8370;52.556;7.970;2023-06-10T11:08:57;26.10;99.90
16515;DHT22;8370;52.556;7.970;2023-06-10T11:11:25;26.10;99.90
16515;DHT22;8370;52.556;7.970;2023-06-10T11:13:58;26.20;99.90
16515;DHT22;8370;52.556;7.970;2023-06-10T11:16:25;26.20;99.90
16515;DHT22;8370;52.556;7.970;2023-06-10T11:18:53;26.30;99.90
16515;DHT22;8370;52.556;7.970;2023-06-10T11:21:19;26.40;99.90
16515;DHT22;8370;52.556;7.970;2023-06-10T11:23:44;26.50;99.90
16515;DHT22;8370;52.556;7.970;2023-06-10T11:28:41;26.60;99.90
16515;DHT22;8370;52.556;7.970;2023-06-10T11:31:08;26.70;99.90
16515;DHT22;8370;52.556;7.970;2023-06-10T11:33:34;26.70;99.90
16515;DHT22;8370;52.556;7.970;2023-06-10T11:36:06;26.80;99.90
16515;DHT22;8370;52.556;7.970;2023-06-10T11:38:31;26.90;99.90
16515;DHT22;8370;52.556;7.970;2023-06-10T11:40:57;27.10;99.90
16515;DHT22;8370;52.556;7.970;2023-06-10T11:43:22;27.20;99.90
16515;DHT22;8370;52.556;7.970;2023-06-10T11:45:53;27.30;99.90
16515;DHT22;8370;52.556;7.970;2023-06-10T11:48:19;27.40;99.90
16515;DHT22;8370;52.556;7.970;2023-06-10T11:50:44;27.50;99.90
16515;DHT22;8370;52.556;7.970;2023-06-10T11:53:10;27.70;99.90
16515;DHT22;8370;52.556;7.970;2023-06-10T11:55:42;27.80;99.90
16515;DHT22;8370;52.556;7.970;2023-06-10T11:58:14;27.90;99.90
16515;DHT22;8370;52.556;7.970;2023-06-10T12:00:50;28.00;99.90
16515;DHT22;8370;52.556;7.970;2023-06-10T12:03:16;28.20;99.90
16515;DHT22;8370;52.556;7.970;2023-06-10T12:08:19;28.70;99.90
16515;DHT22;8370;52.556;7.970;2023-06-10T12:10:45;29.20;99.90
16515;DHT22;8370;52.556;7.970;2023-06-10T12:13:10;30.20;99.90
16515;DHT22;8370;52.556;7.970;2023-06-10T12:15:36;31.90;98.40
16515;DHT22;8370;52.556;7.970;2023-06-10T12:18:02;34.20;96.30
16515;DHT22;8370;52.556;7.970;2023-06-10T12:20:29;36.20;92.10
16515;DHT22;8370;52.556;7.970;2023-06-10T12:22:54;38.20;88.70
16515;DHT22;8370;52.556;7.970;2023-06-10T12:25:24;40.10;79.70
16515;DHT22;8370;52.556;7.970;2023-06-10T12:27:51;40.70;70.80
16515;DHT22;8370;52.556;7.970;2023-06-10T12:30:19;41.90;66.00
16515;DHT22;8370;52.556;7.970;2023-06-10T12:32:45;42.90;62.30
16515;DHT22;8370;52.556;7.970;2023-06-10T12:35:12;43.70;59.30
16515;DHT22;8370;52.556;7.970;2023-06-10T12:37:38;43.50;55.30
16515;DHT22;8370;52.556;7.970;2023-06-10T12:40:04;44.00;55.60
16515;DHT22;8370;52.556;7.970;2023-06-10T12:42:36;43.80;53.80
16515;DHT22;8370;52.556;7.970;2023-06-10T12:45:02;43.80;53.90
16515;DHT22;8370;52.556;7.970;2023-06-10T12:47:31;43.90;54.00
16515;DHT22;8370;52.556;7.970;2023-06-10T12:49:58;44.30;53.00
16515;DHT22;8370;52.556;7.970;2023-06-10T12:52:24;44.10;52.60
16515;DHT22;8370;52.556;7.970;2023-06-10T12:54:49;44.30;51.70
16515;DHT22;8370;52.556;7.970;2023-06-10T12:57:15;44.40;51.80
16515;DHT22;8370;52.556;7.970;2023-06-10T12:59:40;44.40;51.80
16515;DHT22;8370;52.556;7.970;2023-06-10T13:02:07;44.10;51.50
16515;DHT22;8370;52.556;7.970;2023-06-10T13:04:33;43.60;52.00
16515;DHT22;8370;52.556;7.970;2023-06-10T13:06:58;43.00;52.00
16515;DHT22;8370;52.556;7.970;2023-06-10T13:09:24;42.20;51.10
16515;DHT22;8370;52.556;7.970;2023-06-10T13:11:49;41.50;52.10
16515;DHT22;8370;52.556;7.970;2023-06-10T13:14:15;40.60;54.40
16515;DHT22;8370;52.556;7.970;2023-06-10T13:16:40;39.70;55.20
16515;DHT22;8370;52.556;7.970;2023-06-10T13:19:06;38.70;54.60
16515;DHT22;8370;52.556;7.970;2023-06-10T13:21:32;37.80;57.00
16515;DHT22;8370;52.556;7.970;2023-06-10T13:23:57;37.00;57.50
16515;DHT22;8370;52.556;7.970;2023-06-10T13:26:23;36.10;57.50
16515;DHT22;8370;52.556;7.970;2023-06-10T13:28:48;35.50;58.60
16515;DHT22;8370;52.556;7.970;2023-06-10T13:31:14;35.00;59.80
16515;DHT22;8370;52.556;7.970;2023-06-10T13:33:39;34.40;60.80
16515;DHT22;8370;52.556;7.970;2023-06-10T13:36:05;33.70;61.80
16515;DHT22;8370;52.556;7.970;2023-06-10T13:38:31;33.20;62.30
16515;DHT22;8370;52.556;7.970;2023-06-10T13:40:56;32.70;64.80
16515;DHT22;8370;52.556;7.970;2023-06-10T13:43:22;32.40;66.50
16515;DHT22;8370;52.556;7.970;2023-06-10T13:45:47;32.10;65.30
16515;DHT22;8370;52.556;7.970;2023-06-10T13:48:13;31.90;65.30
16515;DHT22;8370;52.556;7.970;2023-06-10T13:50:38;31.60;63.50
16515;DHT22;8370;52.556;7.970;2023-06-10T13:53:03;31.40;65.70
16515;DHT22;8370;52.556;7.970;2023-06-10T13:55:29;31.20;66.10
16515;DHT22;8370;52.556;7.970;2023-06-10T13:57:54;31.10;66.70
16515;DHT22;8370;52.556;7.970;2023-06-10T14:00:20;31.00;67.10
16515;DHT22;8370;52.556;7.970;2023-06-10T14:02:45;30.90;67.20
16515;DHT22;8370;52.556;7.970;2023-06-10T14:05:11;30.70;67.90
16515;DHT22;8370;52.556;7.970;2023-06-10T14:07:37;30.60;68.00
16515;DHT22;8370;52.556;7.970;2023-06-10T14:10:02;30.60;67.60
16515;DHT22;8370;52.556;7.970;2023-06-10T14:12:28;30.60;67.70
16515;DHT22;8370;52.556;7.970;2023-06-10T14:14:53;30.60;68.10
16515;DHT22;8370;52.556;7.970;2023-06-10T14:17:19;30.60;68.50
16515;DHT22;8370;52.556;7.970;2023-06-10T14:19:44;30.50;68.10
16515;DHT22;8370;52.556;7.970;2023-06-10T14:22:10;30.50;68.20
16515;DHT22;8370;52.556;7.970;2023-06-10T14:24:35;30.40;69.90
16515;DHT22;8370;52.556;7.970;2023-06-10T14:27:01;30.40;68.60
16515;DHT22;8370;52.556;7.970;2023-06-10T14:29:27;30.40;68.10
16515;DHT22;8370;52.556;7.970;2023-06-10T14:31:54;30.50;68.90
16515;DHT22;8370;52.556;7.970;2023-06-10T14:34:20;30.40;70.60
16515;DHT22;8370;52.556;7.970;2023-06-10T14:36:45;30.30;69.30
16515;DHT22;8370;52.556;7.970;2023-06-10T14:39:11;30.30;69.50
16515;DHT22;8370;52.556;7.970;2023-06-10T14:41:36;30.20;70.10
16515;DHT22;8370;52.556;7.970;2023-06-10T14:44:01;30.20;70.10
16515;DHT22;8370;52.556;7.970;2023-06-10T14:46:27;30.20;70.40
16515;DHT22;8370;52.556;7.970;2023-06-10T14:48:53;30.10;70.20
16515;DHT22;8370;52.556;7.970;2023-06-10T14:51:18;30.10;70.20
16515;DHT22;8370;52.556;7.970;2023-06-10T14:53:45;30.10;71.00
16515;DHT22;8370;52.556;7.970;2023-06-10T14:56:10;30.00;71.90
16515;DHT22;8370;52.556;7.970;2023-06-10T14:58:36;30.10;71.20
16515;DHT22;8370;52.556;7.970;2023-06-10T15:01:01;29.90;71.80
16515;DHT22;8370;52.556;7.970;2023-06-10T15:03:27;29.90;70.80
16515;DHT22;8370;52.556;7.970;2023-06-10T15:05:52;29.90;71.20
16515;DHT22;8370;52.556;7.970;2023-06-10T15:08:18;29.90;71.80
16515;DHT22;8370;52.556;7.970;2023-06-10T15:10:43;29.90;71.40
16515;DHT22;8370;52.556;7.970;2023-06-10T15:13:08;29.90;72.00
16515;DHT22;8370;52.556;7.970;2023-06-10T15:15:34;29.90;74.40
16515;DHT22;8370;52.556;7.970;2023-06-10T15:17:59;29.80;73.90
16515;DHT22;8370;52.556;7.970;2023-06-10T15:20:25;29.80;74.10
16515;DHT22;8370;52.556;7.970;2023-06-10T15:22:50;29.80;74.00
16515;DHT22;8370;52.556;7.970;2023-06-10T15:25:16;29.80;73.60
16515;DHT22;8370;52.556;7.970;2023-06-10T15:27:41;29.80;73.70
16515;DHT22;8370;52.556;7.970;2023-06-10T15:30:07;29.80;73.20
16515;DHT22;8370;52.556;7.970;2023-06-10T15:32:32;29.80;74.50
16515;DHT22;8370;52.556;7.970;2023-06-10T15:34:58;29.80;74.80
16515;DHT22;8370;52.556;7.970;2023-06-10T15:37:23;29.80;74.80
16515;DHT22;8370;52.556;7.970;2023-06-10T15:39:49;29.70;75.50
16515;DHT22;8370;52.556;7.970;2023-06-10T15:42:14;29.70;75.30
16515;DHT22;8370;52.556;7.970;2023-06-10T15:44:40;29.70;75.50
16515;DHT22;8370;52.556;7.970;2023-06-10T15:47:05;29.70;75.80